Terminal Aerodrome Forecast
Issued by NWS

Home | Current Version | Previous Version | Text Only | Print | Product List | Glossary On
Versions: 1 2 3 4 5 6 7 8 9 10 11 12 13 14 15 16 17 18 19 20 21 22 23
144
FTUS43 KDLH 182331
TAFHIB
TAF
KHIB 182331Z 1900/1924 22003KT P6SM SCT250
     FM190400 VRB02KT 5SM BR SCT250
      TEMPO 1910/1914 1SM BR BKN006
     FM191700 17005KT P6SM SCT007
     FM192100 17005KT 6SM BR BKN007=

USA.gov is the U.S. government's official web portal to all federal, state and local government web resources and services.